Time;durP1;ratioP1;P1;durP2;ratioP2;P2;SDS_P1;SDS_P2;PMS_P1;PMS_P2;Temp;Humidity;BMP_temperature;BMP_pressure;BME280_temperature;BME280_humidity;BME280_pressure;Samples;Min_cycle;Max_cycle;Signal;HPM_P1;HPM_P2
2023/06/08 00:00:12;;;;;;;7.43;5.90;;;17.60;70.30;;;;;;5034047;28;20512;-59
2023/06/08 00:02:42;;;;;;;10.73;5.50;;;17.60;70.40;;;;;;5034534;28;20441;-59
2023/06/08 00:05:12;;;;;;;6.90;5.50;;;17.50;70.70;;;;;;5034260;28;20903;-59
2023/06/08 00:07:40;;;;;;;12.17;5.77;;;17.50;71.10;;;;;;5033871;28;20959;-59
2023/06/08 00:10:08;;;;;;;6.60;5.53;;;17.40;71.50;;;;;;5033805;28;20471;-59
2023/06/08 00:12:36;;;;;;;11.43;6.20;;;17.40;72.00;;;;;;5033941;28;20441;-60
2023/06/08 00:15:03;;;;;;;7.60;5.20;;;17.40;72.30;;;;;;5034881;28;20453;-60
2023/06/08 00:17:31;;;;;;;10.67;6.53;;;17.30;72.40;;;;;;5035086;28;20483;-59
2023/06/08 00:20:00;;;;;;;8.43;6.00;;;17.30;72.80;;;;;;5035844;28;20499;-60
2023/06/08 00:22:27;;;;;;;5.97;5.30;;;17.20;73.00;;;;;;5035344;28;20453;-59
2023/06/08 00:24:53;;;;;;;10.57;5.70;;;17.20;73.50;;;;;;5035372;28;20459;-60
2023/06/08 00:27:20;;;;;;;7.23;5.17;;;17.20;74.00;;;;;;5037254;28;20445;-61
2023/06/08 00:29:47;;;;;;;6.43;5.73;;;17.10;74.70;;;;;;5040846;28;20460;-59
2023/06/08 00:32:14;;;;;;;9.73;5.47;;;17.10;75.40;;;;;;5040963;28;20537;-59
2023/06/08 00:34:41;;;;;;;8.63;5.30;;;17.10;76.00;;;;;;5038610;28;20445;-59
2023/06/08 00:37:09;;;;;;;7.37;5.47;;;17.10;76.40;;;;;;5038224;28;20868;-59
2023/06/08 00:39:35;;;;;;;6.90;5.27;;;17.10;76.80;;;;;;5038207;28;20483;-60
2023/06/08 00:42:05;;;;;;;8.67;5.20;;;17.10;77.00;;;;;;5038136;28;20451;-63
2023/06/08 00:44:32;;;;;;;8.83;5.93;;;17.10;77.30;;;;;;5037879;28;20445;-61
2023/06/08 00:46:59;;;;;;;8.97;6.30;;;17.10;77.60;;;;;;5037809;28;20443;-60
2023/06/08 00:49:26;;;;;;;10.10;5.97;;;17.10;77.80;;;;;;5037552;28;20550;-61
2023/06/08 00:51:53;;;;;;;7.70;5.70;;;17.00;77.90;;;;;;5037324;28;20480;-61
2023/06/08 00:54:24;;;;;;;10.93;6.10;;;17.00;78.20;;;;;;5036997;28;20449;-60
2023/06/08 00:56:52;;;;;;;10.03;5.30;;;16.90;78.50;;;;;;5037653;28;20465;-58
2023/06/08 00:59:19;;;;;;;9.63;5.80;;;16.90;79.50;;;;;;5037757;28;20469;-60
2023/06/08 01:01:47;;;;;;;12.03;6.07;;;16.80;79.00;;;;;;5037682;28;20456;-58
2023/06/08 01:04:14;;;;;;;11.97;6.63;;;16.70;79.40;;;;;;5036636;28;20457;-59
2023/06/08 01:06:45;;;;;;;10.93;5.73;;;16.70;79.80;;;;;;5036434;28;20823;-58
2023/06/08 01:09:22;;;;;;;10.53;6.10;;;16.60;80.20;;;;;;5036877;28;20559;-58
2023/06/08 01:12:09;;;;;;;12.60;6.37;;;16.50;80.70;;;;;;5036874;28;20435;-59
2023/06/08 01:14:45;;;;;;;8.97;5.63;;;16.40;81.30;;;;;;5036226;28;20433;-59
2023/06/08 01:17:17;;;;;;;11.07;6.10;;;16.40;82.00;;;;;;5037180;28;20500;-61
2023/06/08 01:20:04;;;;;;;10.77;5.43;;;16.30;82.40;;;;;;5036409;28;20564;-58
2023/06/08 01:22:46;;;;;;;10.43;5.97;;;16.30;83.00;;;;;;5036256;28;20425;-58
2023/06/08 01:25:16;;;;;;;14.70;5.07;;;16.20;83.20;;;;;;5035922;28;20453;-57
2023/06/08 01:27:44;;;;;;;9.50;5.30;;;16.30;83.70;;;;;;5036642;28;20955;-58
2023/06/08 01:30:11;;;;;;;7.53;6.40;;;16.20;84.70;;;;;;5036839;28;20491;-58
2023/06/08 01:32:38;;;;;;;8.13;5.47;;;16.20;84.20;;;;;;5036863;28;20488;-58
2023/06/08 01:35:06;;;;;;;8.90;5.93;;;16.20;84.50;;;;;;5037363;28;20456;-57
2023/06/08 01:37:37;;;;;;;9.50;5.93;;;16.20;84.80;;;;;;5036615;28;20488;-58
2023/06/08 01:40:10;;;;;;;10.23;6.27;;;16.20;85.10;;;;;;5035706;28;20476;-58
2023/06/08 01:42:42;;;;;;;13.03;6.90;;;16.20;85.60;;;;;;5036843;28;20797;-58
2023/06/08 01:45:14;;;;;;;11.03;6.80;;;16.10;86.00;;;;;;5036104;28;20433;-57
2023/06/08 01:47:46;;;;;;;12.67;6.43;;;16.10;86.60;;;;;;5036186;28;20440;-57
2023/06/08 01:50:13;;;;;;;12.10;6.00;;;16.10;87.30;;;;;;5036775;28;20461;-58
2023/06/08 01:52:41;;;;;;;7.33;6.30;;;16.00;87.70;;;;;;5035860;28;20445;-58
2023/06/08 01:55:15;;;;;;;10.10;6.27;;;15.90;88.40;;;;;;5036555;28;20448;-58
2023/06/08 01:57:43;;;;;;;9.63;6.70;;;15.90;89.40;;;;;;5035321;28;20461;-58
2023/06/08 02:00:11;;;;;;;11.03;6.30;;;15.80;90.30;;;;;;5035547;28;20469;-57
2023/06/08 02:02:39;;;;;;;15.83;7.57;;;15.70;91.10;;;;;;5035471;28;20951;-58
2023/06/08 02:05:09;;;;;;;12.30;7.10;;;15.60;91.80;;;;;;5035275;28;20453;-59
2023/06/08 02:07:36;;;;;;;11.93;7.00;;;15.60;92.70;;;;;;5035659;28;20447;-59
2023/06/08 02:10:03;;;;;;;13.17;7.60;;;15.60;92.80;;;;;;5035863;28;20888;-58
2023/06/08 02:12:30;;;;;;;10.90;6.70;;;15.50;93.00;;;;;;5036096;28;20540;-58
2023/06/08 02:14:59;;;;;;;8.20;6.33;;;15.50;93.30;;;;;;5036864;28;20449;-57
2023/06/08 02:17:27;;;;;;;11.50;6.60;;;15.50;93.50;;;;;;5036820;28;21010;-57
2023/06/08 02:19:54;;;;;;;12.30;6.50;;;15.50;93.80;;;;;;5036005;28;20511;-57
2023/06/08 02:22:21;;;;;;;10.57;6.70;;;15.40;94.00;;;;;;5039413;28;20448;-57
2023/06/08 02:24:48;;;;;;;9.17;6.70;;;15.40;94.40;;;;;;5039946;28;20449;-58
2023/06/08 02:27:15;;;;;;;12.30;7.30;;;15.30;94.80;;;;;;5039695;28;20532;-57
2023/06/08 02:29:42;;;;;;;13.30;7.20;;;15.30;95.20;;;;;;5038259;28;20473;-58
2023/06/08 02:32:10;;;;;;;9.27;6.33;;;15.20;95.70;;;;;;5037668;28;20463;-58
2023/06/08 02:34:38;;;;;;;10.17;6.90;;;15.20;96.20;;;;;;5036295;28;20452;-57
2023/06/08 02:37:05;;;;;;;8.63;6.50;;;15.10;96.70;;;;;;5037155;28;20497;-58
2023/06/08 02:39:32;;;;;;;12.83;6.30;;;15.10;97.10;;;;;;5036918;28;20469;-58
2023/06/08 02:41:59;;;;;;;8.87;7.80;;;15.10;97.40;;;;;;5036995;28;20445;-57
2023/06/08 02:44:26;;;;;;;11.20;7.60;;;15.10;97.60;;;;;;5037138;28;20449;-57
2023/06/08 02:46:52;;;;;;;13.50;6.80;;;15.00;97.90;;;;;;5037384;28;20441;-58
2023/06/08 02:49:20;;;;;;;13.13;7.77;;;15.00;98.30;;;;;;5036543;28;20830;-59
2023/06/08 02:51:47;;;;;;;12.20;7.43;;;14.90;98.80;;;;;;5034269;28;20451;-58
2023/06/08 02:54:14;;;;;;;14.40;8.67;;;14.80;99.30;;;;;;5035798;28;20441;-57
2023/06/08 02:56:41;;;;;;;14.43;7.90;;;14.70;99.70;;;;;;5034758;28;20453;-59
2023/06/08 02:59:08;;;;;;;10.47;7.20;;;14.70;99.90;;;;;;5034260;28;20476;-58
2023/06/08 03:01:36;;;;;;;11.50;6.87;;;14.70;99.90;;;;;;5034431;28;20441;-57
2023/06/08 03:04:03;;;;;;;12.93;7.70;;;14.70;99.90;;;;;;5033977;28;20481;-58
2023/06/08 03:06:33;;;;;;;13.03;7.33;;;14.60;99.90;;;;;;5033515;28;20818;-58
2023/06/08 03:09:00;;;;;;;11.20;7.60;;;14.60;99.90;;;;;;5033513;28;20511;-57
2023/06/08 03:11:26;;;;;;;8.33;7.00;;;14.60;99.90;;;;;;5033682;28;20472;-57
2023/06/08 03:13:53;;;;;;;13.23;8.20;;;14.60;99.90;;;;;;5033656;28;20445;-57
2023/06/08 03:16:22;;;;;;;10.40;8.23;;;14.50;99.90;;;;;;5033668;28;20484;-57
2023/06/08 03:18:49;;;;;;;17.13;7.90;;;14.50;99.90;;;;;;5033355;28;20484;-58
2023/06/08 03:21:18;;;;;;;16.20;8.63;;;14.40;99.90;;;;;;5033193;28;20430;-58
2023/06/08 03:23:48;;;;;;;10.80;6.93;;;14.30;99.90;;;;;;5033529;28;20452;-57
2023/06/08 03:26:15;;;;;;;13.33;8.70;;;14.30;99.90;;;;;;5033499;28;20433;-58
2023/06/08 03:28:42;;;;;;;14.33;8.17;;;14.30;99.90;;;;;;5033369;28;20486;-58
2023/06/08 03:31:09;;;;;;;12.97;8.20;;;14.20;99.90;;;;;;5033720;28;20448;-58
2023/06/08 03:33:35;;;;;;;12.77;9.10;;;14.20;99.90;;;;;;5033588;28;20460;-57
2023/06/08 03:36:02;;;;;;;16.13;7.40;;;14.20;99.90;;;;;;5033278;28;20483;-58
2023/06/08 03:38:29;;;;;;;13.80;8.73;;;14.10;99.90;;;;;;5032886;28;20496;-54
2023/06/08 03:40:57;;;;;;;17.50;9.70;;;14.10;99.90;;;;;;5033754;28;20786;-58
2023/06/08 03:43:24;;;;;;;13.90;9.17;;;14.00;99.90;;;;;;5033632;28;20445;-58
2023/06/08 03:45:51;;;;;;;14.27;8.70;;;13.90;99.90;;;;;;5033587;28;20480;-58
2023/06/08 03:48:17;;;;;;;14.77;8.37;;;13.90;99.90;;;;;;5033597;28;20445;-58
2023/06/08 03:50:44;;;;;;;17.30;9.50;;;13.90;99.90;;;;;;5033612;28;20467;-59
2023/06/08 03:53:11;;;;;;;14.97;9.03;;;13.90;99.90;;;;;;5033411;28;20456;-58
2023/06/08 03:55:38;;;;;;;15.10;8.40;;;13.90;99.90;;;;;;5033554;28;20842;-58
2023/06/08 03:58:06;;;;;;;16.10;8.70;;;13.90;99.90;;;;;;5033629;28;20481;-58
2023/06/08 04:00:33;;;;;;;15.57;8.77;;;14.00;99.90;;;;;;5033301;28;20472;-56
2023/06/08 04:03:00;;;;;;;16.90;9.40;;;14.00;99.90;;;;;;5033155;28;20586;-58
2023/06/08 04:05:27;;;;;;;13.73;9.50;;;14.00;99.90;;;;;;5033546;28;20871;-58
2023/06/08 04:07:55;;;;;;;14.90;9.03;;;14.00;99.90;;;;;;5033532;28;20451;-57
2023/06/08 04:11:48;;;;;;;21.70;10.17;;;14.00;99.90;;;;;;5091391;27;20607;-58
2023/06/08 04:14:16;;;;;;;14.53;8.77;;;14.00;99.90;;;;;;5091327;28;20446;-59
2023/06/08 04:16:43;;;;;;;12.70;9.40;;;13.90;99.90;;;;;;5090937;28;20963;-59
2023/06/08 04:19:10;;;;;;;15.57;9.60;;;14.00;99.90;;;;;;5091120;28;20481;-59
2023/06/08 04:21:37;;;;;;;15.30;10.03;;;14.00;99.90;;;;;;5091323;28;20488;-58
2023/06/08 04:24:05;;;;;;;17.90;10.10;;;13.90;99.90;;;;;;5091378;28;20820;-58
2023/06/08 04:26:32;;;;;;;14.07;10.13;;;13.90;99.90;;;;;;5090910;28;20937;-59
2023/06/08 04:29:00;;;;;;;11.47;9.43;;;13.80;99.90;;;;;;5090855;28;20485;-59
2023/06/08 04:31:28;;;;;;;14.80;9.80;;;13.80;99.90;;;;;;5092073;28;20984;-59
2023/06/08 04:33:54;;;;;;;15.60;9.70;;;13.80;99.90;;;;;;5092966;28;20496;-59
2023/06/08 04:36:21;;;;;;;15.93;11.27;;;13.80;99.90;;;;;;5092208;28;20449;-59
2023/06/08 04:38:48;;;;;;;15.53;9.87;;;13.80;99.90;;;;;;5091185;28;20649;-59
2023/06/08 04:41:15;;;;;;;14.10;9.30;;;13.80;99.90;;;;;;5092686;28;20805;-59
2023/06/08 04:43:44;;;;;;;15.50;10.80;;;13.80;99.90;;;;;;5091119;28;20952;-58
2023/06/08 04:46:12;;;;;;;14.80;9.40;;;13.80;99.90;;;;;;5096974;28;20477;-58
2023/06/08 04:48:39;;;;;;;22.43;10.43;;;13.80;99.90;;;;;;5101182;28;20442;-59
2023/06/08 04:51:09;;;;;;;15.40;9.70;;;13.90;99.90;;;;;;5101448;28;20474;-58
2023/06/08 04:53:37;;;;;;;14.27;9.60;;;13.90;99.90;;;;;;5095466;28;20450;-58
2023/06/08 04:56:05;;;;;;;19.90;11.13;;;13.90;99.90;;;;;;5094933;28;20442;-58
2023/06/08 04:58:33;;;;;;;16.30;10.63;;;13.90;99.90;;;;;;5092257;28;20821;-59
2023/06/08 05:01:00;;;;;;;21.23;10.37;;;13.90;99.90;;;;;;5091949;28;20513;-57
2023/06/08 05:03:28;;;;;;;19.10;10.43;;;13.90;99.90;;;;;;5092634;28;20468;-57
2023/06/08 05:05:55;;;;;;;15.60;9.90;;;14.00;99.90;;;;;;5091092;28;20450;-57
2023/06/08 05:08:22;;;;;;;16.47;11.47;;;14.10;99.90;;;;;;5091212;28;20470;-57
2023/06/08 05:10:49;;;;;;;20.87;10.70;;;14.10;99.90;;;;;;5090676;28;20869;-57
2023/06/08 05:13:16;;;;;;;14.03;9.40;;;14.20;99.90;;;;;;5091088;28;20442;-57
2023/06/08 05:15:43;;;;;;;17.77;11.40;;;14.20;99.90;;;;;;5090972;28;20446;-58
2023/06/08 05:18:09;;;;;;;18.40;10.63;;;14.30;99.90;;;;;;5091162;28;20831;-57
2023/06/08 05:20:38;;;;;;;18.43;11.20;;;14.30;99.90;;;;;;5092397;22;20590;-55
2023/06/08 05:23:04;;;;;;;23.07;12.60;;;14.40;99.90;;;;;;5057480;28;20448;-57
2023/06/08 05:25:31;;;;;;;23.97;10.67;;;14.40;99.90;;;;;;5056952;28;20455;-57
2023/06/08 05:27:58;;;;;;;17.93;10.40;;;14.40;99.90;;;;;;5055674;28;20466;-57
2023/06/08 05:30:25;;;;;;;14.00;10.13;;;14.40;99.90;;;;;;5056345;28;20479;-56
2023/06/08 05:32:52;;;;;;;18.17;10.30;;;14.40;99.90;;;;;;5056349;28;20444;-57
2023/06/08 05:35:19;;;;;;;16.97;10.70;;;14.50;99.90;;;;;;5056716;28;20444;-57
2023/06/08 05:37:47;;;;;;;18.77;11.40;;;14.60;99.90;;;;;;5056248;28;20971;-57
2023/06/08 05:40:15;;;;;;;20.50;11.37;;;14.60;99.90;;;;;;5056114;28;20467;-58
2023/06/08 05:42:42;;;;;;;13.43;10.40;;;14.70;99.90;;;;;;5055810;28;20770;-58
2023/06/08 05:45:11;;;;;;;23.10;11.40;;;14.70;99.90;;;;;;5055661;28;20452;-58
2023/06/08 05:47:38;;;;;;;14.77;11.37;;;14.70;99.90;;;;;;5055813;28;20508;-58
2023/06/08 05:50:06;;;;;;;17.90;11.10;;;14.70;99.90;;;;;;5055670;28;20543;-59
2023/06/08 05:52:33;;;;;;;21.87;12.40;;;14.80;99.90;;;;;;5055159;28;20938;-58
2023/06/08 05:55:01;;;;;;;14.23;10.63;;;14.90;99.90;;;;;;5055712;28;20497;-58
2023/06/08 05:57:28;;;;;;;15.30;10.57;;;15.00;99.90;;;;;;5055515;28;20448;-59
2023/06/08 05:59:54;;;;;;;14.97;11.33;;;15.10;99.90;;;;;;5055037;28;20491;-59
2023/06/08 06:02:21;;;;;;;20.53;12.30;;;15.20;99.90;;;;;;5054716;28;20544;-58
2023/06/08 06:04:48;;;;;;;15.63;11.50;;;15.40;99.90;;;;;;5055027;28;20443;-60
2023/06/08 06:07:15;;;;;;;27.43;12.67;;;15.50;99.90;;;;;;5054684;28;20934;-59
2023/06/08 06:09:42;;;;;;;17.80;11.87;;;15.60;99.90;;;;;;5054578;28;20475;-59
2023/06/08 06:12:10;;;;;;;17.67;10.50;;;15.60;99.90;;;;;;5054849;28;20488;-59
2023/06/08 06:14:38;;;;;;;19.37;11.57;;;15.60;99.90;;;;;;5054678;28;20442;-58
2023/06/08 06:17:06;;;;;;;19.10;10.00;;;15.60;99.90;;;;;;5054450;28;20451;-58
2023/06/08 06:19:36;;;;;;;16.40;10.10;;;15.60;99.90;;;;;;5054645;28;20475;-61
2023/06/08 06:22:04;;;;;;;16.90;11.80;;;15.70;99.90;;;;;;5058238;28;20424;-61
2023/06/08 06:24:31;;;;;;;16.50;9.77;;;15.80;99.90;;;;;;5055868;28;20444;-59
2023/06/08 06:26:58;;;;;;;13.70;10.70;;;15.90;99.90;;;;;;5054847;28;20480;-60
2023/06/08 06:29:26;;;;;;;16.10;10.87;;;16.10;99.90;;;;;;5055036;28;20564;-61
2023/06/08 06:31:52;;;;;;;14.80;10.90;;;16.20;99.90;;;;;;5054952;28;20579;-59
2023/06/08 06:34:20;;;;;;;18.73;10.60;;;16.40;99.90;;;;;;5054385;28;20448;-59
2023/06/08 06:36:47;;;;;;;17.27;10.93;;;16.70;99.90;;;;;;5055185;28;20448;-59
2023/06/08 06:39:14;;;;;;;19.30;11.80;;;16.80;99.90;;;;;;5054815;28;20455;-60
2023/06/08 06:41:41;;;;;;;16.10;10.20;;;16.80;99.90;;;;;;5056702;28;20440;-58
2023/06/08 06:44:09;;;;;;;17.87;11.77;;;17.00;99.90;;;;;;5058451;28;20452;-59
2023/06/08 06:46:37;;;;;;;15.30;10.83;;;17.10;99.90;;;;;;5055445;28;20466;-59
2023/06/08 06:49:04;;;;;;;19.13;12.03;;;17.10;99.90;;;;;;5057118;28;20440;-61
2023/06/08 06:51:31;;;;;;;16.50;11.90;;;17.20;99.90;;;;;;5054960;28;20824;-60
2023/06/08 06:53:58;;;;;;;17.63;12.40;;;17.30;99.90;;;;;;5054495;28;20455;-58
2023/06/08 06:56:24;;;;;;;15.30;10.30;;;17.40;99.90;;;;;;5054303;28;20440;-59
2023/06/08 06:58:52;;;;;;;17.20;10.87;;;17.60;99.20;;;;;;5054201;28;20452;-60
2023/06/08 07:01:19;;;;;;;15.03;10.30;;;17.60;98.50;;;;;;5058293;28;20495;-59
2023/06/08 07:03:48;;;;;;;15.30;11.53;;;17.50;98.30;;;;;;5053812;28;20535;-59
2023/06/08 07:06:15;;;;;;;15.80;11.20;;;17.50;98.40;;;;;;5053391;28;20475;-59
2023/06/08 07:08:42;;;;;;;14.80;11.37;;;17.50;98.50;;;;;;5053367;28;21013;-61
2023/06/08 07:11:11;;;;;;;16.23;10.30;;;17.50;98.30;;;;;;5053589;28;20861;-60
2023/06/08 07:13:38;;;;;;;13.43;11.67;;;17.60;97.90;;;;;;5054528;28;20482;-61
2023/06/08 07:16:06;;;;;;;18.77;12.60;;;17.60;98.00;;;;;;5054387;28;20449;-61
2023/06/08 07:18:33;;;;;;;17.37;11.23;;;17.70;97.50;;;;;;5054896;28;20804;-58
2023/06/08 07:21:01;;;;;;;17.30;12.67;;;17.90;97.40;;;;;;5053336;28;20475;-60
2023/06/08 07:23:28;;;;;;;16.00;10.53;;;18.20;96.20;;;;;;5053838;28;20448;-60
2023/06/08 07:25:55;;;;;;;18.27;10.73;;;18.30;95.20;;;;;;5053478;28;20440;-60
2023/06/08 07:28:21;;;;;;;19.07;12.10;;;18.60;94.20;;;;;;5053016;28;20852;-60
2023/06/08 07:30:48;;;;;;;20.03;11.17;;;18.70;93.50;;;;;;5053287;28;20483;-59
2023/06/08 07:33:15;;;;;;;17.90;11.67;;;18.70;92.90;;;;;;5052872;28;20946;-61
2023/06/08 07:35:42;;;;;;;16.93;11.13;;;18.80;92.60;;;;;;5052837;28;20937;-61
2023/06/08 07:38:10;;;;;;;13.93;10.70;;;18.80;92.20;;;;;;5052776;28;20793;-60
2023/06/08 07:40:37;;;;;;;14.70;12.03;;;19.00;91.70;;;;;;5053004;28;20559;-60
2023/06/08 07:43:04;;;;;;;16.33;11.83;;;19.20;90.80;;;;;;5052936;28;20450;-63
2023/06/08 07:45:30;;;;;;;21.03;11.27;;;19.40;90.10;;;;;;5052532;28;20448;-60
2023/06/08 07:47:57;;;;;;;19.83;11.30;;;19.40;88.60;;;;;;5053351;28;20486;-63
2023/06/08 07:50:24;;;;;;;14.10;11.60;;;19.50;87.50;;;;;;5053229;28;20475;-61
2023/06/08 07:52:54;;;;;;;17.37;12.30;;;19.50;86.90;;;;;;5053789;28;20488;-61
2023/06/08 07:55:23;;;;;;;17.50;11.97;;;19.60;86.30;;;;;;5054249;28;20444;-62
2023/06/08 07:57:50;;;;;;;21.70;11.17;;;19.80;84.80;;;;;;5053744;28;20447;-60
2023/06/08 08:00:18;;;;;;;22.07;11.73;;;20.00;83.20;;;;;;5053390;28;20566;-61
2023/06/08 08:02:45;;;;;;;17.67;10.83;;;20.20;81.30;;;;;;5053167;28;20467;-60
2023/06/08 08:05:13;;;;;;;19.60;12.10;;;20.30;80.20;;;;;;5053047;28;20522;-60
2023/06/08 08:07:40;;;;;;;18.07;10.70;;;20.40;78.70;;;;;;5052838;28;20524;-60
2023/06/08 08:10:08;;;;;;;17.57;10.80;;;20.50;77.80;;;;;;5052483;28;20465;-60
2023/06/08 08:12:37;;;;;;;15.37;10.90;;;20.70;76.80;;;;;;5053446;28;20481;-61
2023/06/08 08:15:05;;;;;;;13.30;11.23;;;20.90;75.40;;;;;;5052825;28;20450;-61
2023/06/08 08:17:31;;;;;;;15.00;11.00;;;21.00;74.20;;;;;;5052965;28;20461;-61
2023/06/08 08:19:58;;;;;;;12.87;10.67;;;21.00;73.60;;;;;;5053871;28;20491;-60
2023/06/08 08:22:28;;;;;;;13.20;10.60;;;21.00;73.10;;;;;;5052071;28;20532;-60
2023/06/08 08:24:55;;;;;;;16.93;10.50;;;21.20;72.70;;;;;;5052410;28;20496;-60
2023/06/08 08:27:22;;;;;;;14.63;11.40;;;21.40;71.80;;;;;;5052444;28;20451;-61
2023/06/08 08:29:50;;;;;;;17.90;11.60;;;21.60;70.80;;;;;;5052455;28;20589;-60
2023/06/08 08:32:16;;;;;;;15.50;11.73;;;21.90;69.70;;;;;;5052723;28;20487;-60
2023/06/08 08:34:43;;;;;;;12.77;11.47;;;22.10;68.30;;;;;;5052309;28;20454;-60
2023/06/08 08:37:10;;;;;;;12.57;11.27;;;22.20;67.10;;;;;;5052504;28;20468;-62
2023/06/08 08:39:37;;;;;;;12.63;10.67;;;22.20;66.20;;;;;;5052345;28;20464;-62
2023/06/08 08:42:10;;;;;;;16.53;11.07;;;22.00;66.20;;;;;;5052072;28;20479;-60
2023/06/08 08:44:37;;;;;;;12.37;10.57;;;21.90;66.40;;;;;;5052846;28;20447;-61
2023/06/08 08:47:10;;;;;;;15.40;11.43;;;21.60;66.70;;;;;;5052054;28;20451;-60
2023/06/08 08:49:40;;;;;;;14.33;10.17;;;21.50;67.40;;;;;;5051967;28;20992;-62
2023/06/08 08:52:09;;;;;;;13.07;10.77;;;21.40;67.80;;;;;;5054079;28;20589;-60
2023/06/08 08:54:38;;;;;;;17.90;10.93;;;21.40;68.00;;;;;;5052433;28;20458;-62
2023/06/08 08:57:08;;;;;;;13.60;10.67;;;21.50;67.90;;;;;;5053659;28;20451;-60
2023/06/08 08:59:37;;;;;;;14.73;10.30;;;21.60;67.40;;;;;;5056264;28;20467;-62
2023/06/08 09:02:05;;;;;;;12.40;10.93;;;21.80;66.80;;;;;;5056404;28;20448;-61
2023/06/08 09:04:32;;;;;;;12.27;10.77;;;22.00;66.50;;;;;;5056094;28;20450;-61
2023/06/08 09:06:59;;;;;;;15.17;11.50;;;22.10;65.80;;;;;;5056457;28;20451;-61
2023/06/08 09:09:26;;;;;;;16.83;11.93;;;22.20;65.30;;;;;;5055733;28;20493;-61
2023/06/08 09:12:37;;;;;;;12.20;10.90;;;22.30;65.00;;;;;;5056177;28;20483;-61
2023/06/08 09:15:07;;;;;;;16.60;11.53;;;22.50;64.60;;;;;;5029101;28;20463;-62
2023/06/08 09:17:38;;;;;;;14.63;11.43;;;22.60;63.80;;;;;;5057606;28;20558;-61
2023/06/08 09:20:08;;;;;;;13.20;11.77;;;22.60;63.20;;;;;;5055529;28;20824;-60
2023/06/08 09:22:36;;;;;;;12.93;10.70;;;22.60;63.10;;;;;;5055657;28;21009;-60
2023/06/08 09:25:03;;;;;;;13.30;10.83;;;22.70;62.80;;;;;;5056018;28;20538;-60
2023/06/08 09:27:31;;;;;;;13.73;11.43;;;22.80;62.50;;;;;;5055959;28;20453;-60
2023/06/08 09:29:59;;;;;;;13.80;9.87;;;22.90;62.10;;;;;;5055169;28;21039;-60
2023/06/08 09:32:32;;;;;;;13.63;10.40;;;23.10;61.60;;;;;;5055426;28;20484;-60
2023/06/08 09:35:02;;;;;;;14.60;10.40;;;23.30;60.70;;;;;;5056309;28;20490;-60
2023/06/08 09:37:30;;;;;;;12.83;9.33;;;23.40;60.10;;;;;;5055074;28;20574;-61
2023/06/08 09:39:57;;;;;;;15.30;9.47;;;23.50;59.90;;;;;;5055065;28;20523;-62
2023/06/08 09:42:40;;;;;;;17.43;11.17;;;23.60;59.60;;;;;;5055280;28;20484;-60
2023/06/08 09:45:09;;;;;;;15.00;10.20;;;23.70;59.40;;;;;;5055746;28;20907;-60
2023/06/08 09:47:36;;;;;;;14.30;10.60;;;23.90;58.80;;;;;;5055121;28;20455;-61
2023/06/08 09:50:08;;;;;;;15.27;10.80;;;24.10;58.40;;;;;;5055145;28;20466;-61
2023/06/08 09:52:37;;;;;;;14.23;11.33;;;24.10;57.90;;;;;;5054461;28;20996;-61
2023/06/08 09:55:05;;;;;;;16.23;11.07;;;24.20;57.70;;;;;;5054755;28;20455;-61
2023/06/08 09:57:35;;;;;;;18.47;9.80;;;24.10;57.40;;;;;;5056696;28;20486;-61
2023/06/08 10:00:14;;;;;;;14.40;9.67;;;24.10;57.40;;;;;;5059785;28;20558;-62
2023/06/08 10:02:53;;;;;;;15.13;10.13;;;24.10;57.40;;;;;;5058371;28;20849;-63
2023/06/08 10:05:23;;;;;;;12.63;9.73;;;24.10;57.20;;;;;;5055544;28;20444;-62
2023/06/08 10:07:55;;;;;;;12.53;8.93;;;24.10;57.10;;;;;;5055349;28;20436;-62
2023/06/08 10:10:24;;;;;;;14.97;9.93;;;24.20;56.90;;;;;;5054783;28;20634;-62
2023/06/08 10:12:51;;;;;;;16.47;9.97;;;24.40;56.80;;;;;;5057931;28;20483;-62
2023/06/08 10:15:21;;;;;;;10.87;8.93;;;24.20;56.70;;;;;;5056409;28;20490;-62
2023/06/08 10:17:49;;;;;;;18.13;10.40;;;24.10;56.90;;;;;;5054240;28;20998;-61
2023/06/08 10:20:17;;;;;;;13.07;11.33;;;24.00;57.00;;;;;;5053887;28;21001;-61
2023/06/08 10:22:46;;;;;;;15.53;10.30;;;23.90;57.30;;;;;;5054405;28;20444;-61
2023/06/08 10:25:16;;;;;;;12.13;10.77;;;23.90;57.40;;;;;;5055142;28;20479;-61
2023/06/08 10:27:49;;;;;;;17.90;10.80;;;24.10;57.60;;;;;;5056018;28;20446;-62
2023/06/08 10:30:39;;;;;;;13.40;10.60;;;24.20;57.60;;;;;;5055351;28;20479;-63
2023/06/08 10:33:10;;;;;;;17.67;11.40;;;24.20;57.90;;;;;;5054723;28;21009;-62
2023/06/08 10:35:41;;;;;;;14.43;10.27;;;24.10;58.00;;;;;;5054932;28;20481;-62
2023/06/08 10:38:11;;;;;;;14.90;10.20;;;24.00;58.20;;;;;;5056088;28;20479;-62
2023/06/08 10:40:46;;;;;;;16.97;10.43;;;23.90;58.70;;;;;;5056406;28;20988;-61
2023/06/08 10:43:14;;;;;;;11.87;10.57;;;23.80;58.90;;;;;;5055291;28;20886;-62
2023/06/08 10:45:44;;;;;;;13.70;10.27;;;23.80;59.20;;;;;;5056131;28;20459;-61
2023/06/08 10:48:18;;;;;;;15.80;10.80;;;23.90;59.80;;;;;;5055067;28;20479;-61
2023/06/08 10:50:45;;;;;;;18.63;11.37;;;23.80;60.30;;;;;;5053053;28;21001;-60
2023/06/08 10:53:17;;;;;;;13.40;11.70;;;23.80;61.00;;;;;;5054865;28;20480;-61
2023/06/08 10:55:47;;;;;;;15.30;11.20;;;23.70;61.50;;;;;;5055968;28;20796;-60
2023/06/08 10:58:18;;;;;;;15.97;11.47;;;23.70;61.90;;;;;;5056088;28;20810;-61
2023/06/08 11:00:49;;;;;;;12.90;10.10;;;23.90;62.00;;;;;;5053927;28;20533;-61
2023/06/08 11:03:18;;;;;;;16.10;11.60;;;24.10;62.00;;;;;;5053607;28;20432;-61
2023/06/08 11:05:49;;;;;;;20.73;12.97;;;24.10;62.10;;;;;;5054132;28;20443;-60
2023/06/08 11:08:17;;;;;;;20.43;11.93;;;23.90;62.50;;;;;;5054339;28;20981;-62
2023/06/08 11:10:51;;;;;;;17.33;12.07;;;23.90;63.00;;;;;;5053978;28;20574;-61
2023/06/08 11:13:17;;;;;;;17.40;11.93;;;23.80;62.60;;;;;;5054717;28;20956;-60
2023/06/08 11:15:45;;;;;;;15.77;12.47;;;23.70;63.00;;;;;;5053402;28;20459;-60
2023/06/08 11:18:12;;;;;;;16.70;12.50;;;23.50;63.50;;;;;;5053557;28;20453;-60
2023/06/08 11:20:40;;;;;;;16.70;13.80;;;23.50;63.80;;;;;;5052575;28;20498;-60
2023/06/08 11:23:09;;;;;;;15.70;12.10;;;23.50;63.80;;;;;;5053276;28;20443;-59
2023/06/08 11:25:38;;;;;;;18.50;12.17;;;23.60;63.70;;;;;;5052744;28;20822;-60
2023/06/08 11:28:07;;;;;;;19.50;12.93;;;23.80;63.50;;;;;;5053272;28;20505;-60
2023/06/08 11:30:35;;;;;;;21.00;13.33;;;24.00;63.30;;;;;;5053192;28;20544;-61
2023/06/08 11:33:05;;;;;;;22.50;13.60;;;24.30;62.50;;;;;;5052980;28;20483;-60
2023/06/08 11:35:32;;;;;;;16.50;12.80;;;24.50;61.60;;;;;;5053458;28;20484;-61
2023/06/08 11:38:00;;;;;;;19.00;13.37;;;24.60;61.00;;;;;;5053858;28;20825;-60
2023/06/08 11:40:27;;;;;;;15.37;13.40;;;24.70;60.40;;;;;;5053206;28;20464;-60
2023/06/08 11:42:57;;;;;;;19.20;13.23;;;24.90;59.50;;;;;;5053025;28;20441;-59
2023/06/08 11:45:24;;;;;;;13.40;12.00;;;25.10;59.00;;;;;;5053576;28;20588;-60
2023/06/08 11:47:54;;;;;;;16.90;13.27;;;25.20;58.60;;;;;;5053892;28;20449;-60
2023/06/08 11:50:21;;;;;;;20.53;14.17;;;25.30;57.90;;;;;;5053768;28;20861;-60
2023/06/08 11:52:48;;;;;;;15.90;13.30;;;25.30;57.40;;;;;;5053048;28;20483;-61
2023/06/08 11:55:19;;;;;;;16.60;12.60;;;25.40;57.20;;;;;;5053079;28;20447;-60
2023/06/08 11:57:49;;;;;;;15.73;11.97;;;25.60;56.90;;;;;;5054335;28;20494;-62
2023/06/08 12:00:20;;;;;;;17.73;12.03;;;26.00;55.90;;;;;;5053638;28;20474;-63
2023/06/08 12:02:47;;;;;;;19.13;12.67;;;26.30;54.90;;;;;;5053779;28;20514;-61
2023/06/08 12:05:57;;;;;;;14.17;10.97;;;26.80;53.90;;;;;;5055503;28;21003;-61
2023/06/08 12:08:24;;;;;;;15.57;11.30;;;27.40;52.30;;;;;;5052573;28;20462;-59
2023/06/08 12:10:51;;;;;;;16.00;12.10;;;27.90;51.00;;;;;;5052369;28;20826;-59
2023/06/08 12:13:20;;;;;;;13.83;11.47;;;28.00;50.00;;;;;;5052342;28;20645;-61
2023/06/08 12:15:57;;;;;;;16.57;11.17;;;27.80;49.50;;;;;;5053491;28;20491;-60
2023/06/08 12:18:24;;;;;;;13.70;10.47;;;27.90;49.00;;;;;;5056913;28;20446;-61
2023/06/08 12:20:53;;;;;;;14.10;10.80;;;28.10;48.50;;;;;;5052977;28;20477;-58
2023/06/08 12:23:20;;;;;;;12.20;10.20;;;28.20;48.20;;;;;;5056571;28;20888;-60
2023/06/08 12:25:48;;;;;;;10.70;8.90;;;28.30;48.00;;;;;;5052779;28;20446;-60
2023/06/08 12:28:19;;;;;;;12.83;10.03;;;28.40;47.50;;;;;;5052956;28;20896;-59
2023/06/08 12:30:45;;;;;;;13.80;9.97;;;28.60;47.00;;;;;;5053280;28;20467;-59
2023/06/08 12:33:17;;;;;;;13.57;9.70;;;28.50;46.80;;;;;;5056985;28;21025;-60
2023/06/08 12:35:44;;;;;;;10.67;9.50;;;28.30;47.00;;;;;;5057263;28;20795;-61
2023/06/08 12:38:11;;;;;;;12.37;9.93;;;28.10;47.40;;;;;;5056893;28;20447;-61
2023/06/08 12:40:38;;;;;;;12.33;9.87;;;27.80;47.60;;;;;;5056765;28;20465;-60